Terminal Aerodrome Forecast
Issued by NWS

Home | Current Version | Previous Version | Text Only | Print | Product List | Glossary On
Versions: 1 2 3 4 5 6 7 8 9 10 11 12 13 14 15 16 17 18 19 20 21 22 23 24 25 26 27 28 29 30 31 32 33 34
000
FTUS45 KGJT 052326
TAFEGE
TAF
KEGE 052326Z 0600/0624 22010KT P6SM SCT070 OVC100
     FM060100 20008KT P6SM VCTS SCT060CB BKN090
      TEMPO 0601/0605 VRB15G25KT -TSRA BKN050CB
     FM060600 03005KT P6SM BKN100
     FM061000 00000KT P6SM FEW060 BKN120
     FM061500 VRB04KT P6SM SCT120
      AMD LTD TO CLD VIS AND WIND 0602/0613=

USA.gov is the U.S. government's official web portal to all federal, state and local government web resources and services.